createdAt,value
2022-08-05T00:00:16.939Z,94.50
2022-08-05T00:02:51.669Z,94.60
2022-08-05T00:06:01.506Z,94.60
2022-08-05T00:08:32.794Z,94.70
2022-08-05T00:11:00.820Z,94.90
2022-08-05T00:13:38.015Z,94.90
2022-08-05T00:16:08.659Z,95.00
2022-08-05T00:18:38.429Z,95.00
2022-08-05T00:21:08.429Z,95.00
2022-08-05T00:23:45.920Z,95.00
2022-08-05T00:26:22.310Z,95.10
2022-08-05T00:28:50.593Z,95.10
2022-08-05T00:31:53.806Z,95.10
2022-08-05T00:34:56.350Z,95.20
2022-08-05T00:37:11.392Z,95.30
2022-08-05T00:39:44.566Z,95.40
2022-08-05T00:42:32.906Z,95.50
2022-08-05T00:45:01.216Z,95.50
2022-08-05T00:47:31.624Z,95.50
2022-08-05T00:50:20.940Z,95.80
2022-08-05T00:52:49.110Z,95.50
2022-08-05T00:55:16.948Z,95.50
2022-08-05T00:57:58.226Z,95.50
2022-08-05T01:00:28.180Z,95.60
2022-08-05T01:02:56.744Z,95.60
2022-08-05T01:05:27.363Z,95.60
2022-08-05T01:08:39.142Z,95.70
2022-08-05T01:10:52.241Z,95.70
2022-08-05T01:13:57.314Z,95.80
2022-08-05T01:16:26.104Z,95.80
2022-08-05T01:19:01.629Z,95.90
2022-08-05T01:22:03.477Z,96.00
2022-08-05T01:25:18.184Z,96.10
2022-08-05T01:28:14.515Z,96.00
2022-08-05T01:30:53.963Z,96.10
2022-08-05T01:33:29.361Z,96.20
2022-08-05T01:36:13.080Z,96.20
2022-08-05T01:38:48.329Z,96.20
2022-08-05T01:41:22.428Z,96.30
2022-08-05T01:43:55.520Z,96.40
2022-08-05T01:46:41.967Z,96.40
2022-08-05T01:49:24.046Z,96.50
2022-08-05T01:51:55.971Z,96.50
2022-08-05T01:54:27.275Z,96.60
2022-08-05T01:58:13.077Z,96.60
2022-08-05T01:59:50.229Z,96.60
2022-08-05T02:02:25.795Z,96.60
2022-08-05T02:04:59.098Z,96.60
2022-08-05T02:07:27.333Z,96.80
2022-08-05T02:09:59.154Z,96.80
2022-08-05T02:12:38.150Z,96.90
2022-08-05T02:15:12.638Z,96.90
2022-08-05T02:18:31.264Z,97.00
2022-08-05T02:20:40.101Z,97.10
2022-08-05T02:23:11.837Z,97.10
2022-08-05T02:25:49.173Z,97.10
2022-08-05T02:28:28.651Z,97.30
2022-08-05T02:31:02.135Z,97.30
2022-08-05T02:33:38.658Z,97.30
2022-08-05T02:36:09.831Z,97.30
2022-08-05T02:38:44.639Z,97.30
2022-08-05T02:41:23.928Z,97.30
2022-08-05T02:44:02.605Z,97.30
2022-08-05T02:46:43.889Z,97.40
2022-08-05T02:49:22.316Z,97.40
2022-08-05T02:52:03.946Z,97.50
2022-08-05T02:54:37.024Z,97.60
2022-08-05T02:57:10.110Z,97.60
2022-08-05T02:59:55.815Z,97.70
2022-08-05T03:02:29.612Z,97.70
2022-08-05T03:04:58.997Z,97.80
2022-08-05T03:08:01.154Z,97.80
2022-08-05T03:10:22.089Z,97.80
2022-08-05T03:12:54.110Z,97.70
2022-08-05T03:15:23.294Z,97.80
2022-08-05T03:17:55.589Z,97.80
2022-08-05T03:20:24.486Z,97.80
2022-08-05T03:22:53.169Z,97.80
2022-08-05T03:25:33.788Z,98.10
2022-08-05T03:28:14.275Z,97.90
2022-08-05T03:30:47.353Z,97.90
2022-08-05T03:33:18.140Z,98.00
2022-08-05T03:35:47.291Z,97.90
2022-08-05T03:38:15.853Z,98.00
2022-08-05T03:40:45.103Z,98.10
2022-08-05T03:43:59.017Z,98.00
2022-08-05T03:46:04.755Z,98.10
2022-08-05T03:48:35.462Z,98.20
2022-08-05T03:52:37.265Z,98.20
2022-08-05T03:55:51.689Z,98.30
2022-08-05T03:57:00.620Z,98.40
2022-08-05T03:59:46.753Z,98.40
2022-08-05T04:02:38.825Z,98.40
2022-08-05T04:05:10.292Z,98.30
2022-08-05T04:07:57.925Z,98.30
2022-08-05T04:10:28.406Z,98.40
2022-08-05T04:13:00.181Z,98.40
2022-08-05T04:15:33.196Z,98.50
2022-08-05T04:18:03.162Z,98.60
2022-08-05T04:20:32.682Z,98.60
2022-08-05T04:23:01.623Z,98.70
2022-08-05T04:25:57.556Z,98.70
2022-08-05T04:28:17.445Z,98.60
2022-08-05T04:30:45.785Z,98.60
2022-08-05T04:33:14.289Z,98.70
2022-08-05T04:36:16.814Z,98.70
2022-08-05T04:38:39.889Z,98.70
2022-08-05T04:41:09.316Z,98.70
2022-08-05T04:43:37.959Z,98.70
2022-08-05T04:46:14.378Z,98.70
2022-08-05T04:48:58.706Z,98.70
2022-08-05T04:51:30.479Z,98.70
2022-08-05T04:54:01.207Z,98.60
2022-08-05T04:56:34.612Z,97.70
2022-08-05T04:59:22.400Z,96.90
2022-08-05T05:02:35.135Z,96.30
2022-08-05T05:04:43.926Z,95.80
2022-08-05T05:07:15.927Z,95.40
2022-08-05T05:09:45.017Z,95.40
2022-08-05T05:12:12.994Z,95.00
2022-08-05T05:14:49.191Z,94.90
2022-08-05T05:17:23.466Z,94.70
2022-08-05T05:19:54.948Z,94.40
2022-08-05T05:22:26.308Z,94.20
2022-08-05T05:24:57.927Z,93.90
2022-08-05T05:27:41.466Z,93.80
2022-08-05T05:30:15.445Z,93.80
2022-08-05T05:32:56.777Z,93.40
2022-08-05T05:35:25.174Z,93.20
2022-08-05T05:37:59.940Z,93.20
2022-08-05T05:40:31.420Z,93.30
2022-08-05T05:43:02.118Z,92.90
2022-08-05T05:45:30.122Z,92.40
2022-08-05T05:48:07.945Z,92.80
2022-08-05T05:50:43.948Z,92.60
2022-08-05T05:53:22.203Z,92.70
2022-08-05T05:56:01.385Z,92.50
2022-08-05T05:58:32.105Z,92.00
2022-08-05T06:01:02.391Z,92.10
2022-08-05T06:04:00.936Z,92.70
2022-08-05T06:06:33.257Z,93.80
2022-08-05T06:09:05.024Z,94.30
2022-08-05T06:11:32.979Z,94.90
2022-08-05T06:14:01.142Z,95.20
2022-08-05T06:16:33.009Z,94.50
2022-08-05T06:19:07.187Z,94.40
2022-08-05T06:21:38.831Z,92.60
2022-08-05T06:24:14.634Z,91.40
2022-08-05T06:26:51.040Z,91.60
2022-08-05T06:29:43.059Z,91.30
2022-08-05T06:32:25.171Z,91.70
2022-08-05T06:34:56.881Z,91.60
2022-08-05T06:37:56.868Z,90.90
2022-08-05T06:40:18.161Z,90.10
2022-08-05T06:42:51.991Z,89.00
2022-08-05T06:45:44.769Z,89.90
2022-08-05T06:48:36.686Z,90.40
2022-08-05T06:50:57.304Z,90.50
2022-08-05T06:53:28.426Z,89.80
2022-08-05T06:55:58.372Z,87.80
2022-08-05T06:58:35.360Z,88.00
2022-08-05T07:01:06.591Z,89.60
2022-08-05T07:03:35.086Z,91.50
2022-08-05T07:06:05.938Z,93.00
2022-08-05T07:08:47.913Z,92.10
2022-08-05T07:11:22.568Z,92.20
2022-08-05T07:14:29.625Z,92.30
2022-08-05T07:18:01.837Z,93.20
2022-08-05T07:22:37.092Z,92.90
2022-08-05T07:25:23.338Z,92.90
2022-08-05T07:28:00.614Z,93.10
2022-08-05T07:30:38.995Z,93.40
2022-08-05T07:33:10.158Z,92.90
2022-08-05T07:36:02.373Z,93.40
2022-08-05T07:38:34.512Z,92.30
2022-08-05T07:42:08.166Z,92.30
2022-08-05T07:43:59.612Z,92.90
2022-08-05T07:46:28.905Z,92.20
2022-08-05T07:49:02.903Z,92.30
2022-08-05T07:51:36.868Z,92.80
2022-08-05T07:54:06.423Z,92.30
2022-08-05T07:57:00.286Z,92.20
2022-08-05T07:59:39.003Z,91.90
2022-08-05T08:02:15.942Z,92.10
2022-08-05T08:04:48.981Z,92.70
2022-08-05T08:07:22.145Z,92.30
2022-08-05T08:09:53.065Z,92.20
2022-08-05T08:12:35.157Z,92.70
2022-08-05T08:15:15.818Z,92.60
2022-08-05T08:17:49.789Z,92.70
2022-08-05T08:20:44.442Z,92.90
2022-08-05T08:24:00.094Z,92.80
2022-08-05T08:25:59.412Z,93.30
2022-08-05T08:28:36.746Z,92.80
2022-08-05T08:31:15.036Z,92.60
2022-08-05T08:33:45.403Z,92.80
2022-08-05T08:36:37.448Z,92.20
2022-08-05T08:39:01.764Z,92.70
2022-08-05T08:41:50.873Z,92.70
2022-08-05T08:45:23.609Z,93.20
2022-08-05T08:47:47.668Z,92.60
2022-08-05T08:50:12.950Z,92.60
2022-08-05T08:52:54.042Z,93.10
2022-08-05T08:56:02.177Z,93.20
2022-08-05T08:58:12.871Z,92.30
2022-08-05T09:00:42.913Z,92.50
2022-08-05T09:03:15.958Z,92.80
2022-08-05T09:06:08.518Z,92.80
2022-08-05T09:08:40.096Z,92.60
2022-08-05T09:11:12.134Z,91.60
2022-08-05T09:14:09.663Z,91.90
2022-08-05T09:16:31.202Z,92.20
2022-08-05T09:19:00.541Z,92.00
2022-08-05T09:22:22.621Z,91.70
2022-08-05T09:24:18.209Z,91.90
2022-08-05T09:26:51.829Z,91.40
2022-08-05T09:29:20.215Z,91.90
2022-08-05T09:32:41.455Z,90.60
2022-08-05T09:34:58.426Z,90.80
2022-08-05T09:38:13.017Z,91.30
2022-08-05T09:40:32.150Z,91.40
2022-08-05T09:43:01.398Z,91.30
2022-08-05T09:46:07.421Z,90.40
2022-08-05T09:48:31.869Z,90.80
2022-08-05T09:51:03.352Z,90.30
2022-08-05T09:53:54.045Z,90.40
2022-08-05T09:56:27.813Z,91.00
2022-08-05T09:59:00.486Z,89.80
2022-08-05T10:01:32.435Z,89.70
2022-08-05T10:04:04.400Z,88.60
2022-08-05T10:06:41.425Z,89.20
2022-08-05T10:09:27.713Z,88.10
2022-08-05T10:12:30.785Z,89.40
2022-08-05T10:15:13.792Z,90.10
2022-08-05T10:17:54.516Z,88.70
2022-08-05T10:20:26.943Z,88.00
2022-08-05T10:22:58.459Z,89.60
2022-08-05T10:25:26.385Z,88.60
2022-08-05T10:28:12.925Z,89.70
2022-08-05T10:32:49.466Z,89.60
2022-08-05T10:33:34.240Z,89.40
2022-08-05T10:36:05.327Z,88.40
2022-08-05T10:38:37.171Z,88.90
2022-08-05T10:41:14.503Z,89.60
2022-08-05T10:43:57.133Z,88.50
2022-08-05T10:46:44.560Z,90.60
2022-08-05T10:49:16.913Z,90.30
2022-08-05T10:51:58.282Z,89.70
2022-08-05T10:54:56.914Z,89.30
2022-08-05T10:57:31.824Z,88.50
2022-08-05T11:00:19.835Z,87.30
2022-08-05T11:03:25.082Z,87.80
2022-08-05T11:06:15.473Z,85.40
2022-08-05T11:09:13.151Z,86.30
2022-08-05T11:11:53.180Z,86.60
2022-08-05T11:14:56.326Z,87.90
2022-08-05T11:17:57.209Z,86.80
2022-08-05T11:20:44.990Z,87.90
2022-08-05T11:24:04.787Z,86.70
2022-08-05T11:26:33.033Z,87.90
2022-08-05T11:29:06.598Z,84.20
2022-08-05T11:31:53.882Z,85.10
2022-08-05T11:34:47.533Z,87.30
2022-08-05T11:38:29.986Z,86.50
2022-08-05T11:41:12.747Z,85.60
2022-08-05T11:44:00.960Z,85.40
2022-08-05T11:46:37.494Z,85.40
2022-08-05T11:49:08.013Z,84.60
2022-08-05T11:51:44.100Z,84.90
2022-08-05T11:54:33.720Z,84.30
2022-08-05T11:57:08.796Z,86.00
2022-08-05T11:59:51.388Z,84.80
2022-08-05T12:02:32.249Z,82.60
2022-08-05T12:05:07.054Z,86.80
2022-08-05T12:08:03.577Z,87.00
2022-08-05T12:10:43.161Z,86.70
2022-08-05T12:13:17.138Z,84.50
2022-08-05T12:15:49.812Z,84.40
2022-08-05T12:18:24.181Z,86.50
2022-08-05T12:20:52.478Z,85.70
2022-08-05T12:23:20.299Z,87.30
2022-08-05T12:25:56.584Z,86.90
2022-08-05T12:28:32.542Z,85.50
2022-08-05T12:31:02.039Z,85.20
2022-08-05T12:33:38.692Z,85.00
2022-08-05T12:36:08.987Z,85.00
2022-08-05T12:38:39.461Z,84.50
2022-08-05T12:41:13.450Z,85.90
2022-08-05T12:43:52.560Z,85.50
2022-08-05T12:46:29.051Z,86.20
2022-08-05T12:49:00.668Z,84.50
2022-08-05T12:52:13.677Z,82.90
2022-08-05T12:54:23.564Z,86.70
2022-08-05T12:56:58.940Z,84.80
2022-08-05T13:00:08.715Z,81.90
2022-08-05T13:02:21.382Z,85.80
2022-08-05T13:04:56.716Z,83.30
2022-08-05T13:07:57.440Z,83.30
2022-08-05T13:10:20.191Z,85.80
2022-08-05T13:12:57.518Z,85.10
2022-08-05T13:15:41.940Z,84.30
2022-08-05T13:18:20.107Z,82.60
2022-08-05T13:20:50.426Z,84.00
2022-08-05T13:23:22.584Z,84.20
2022-08-05T13:25:59.488Z,83.70
2022-08-05T13:28:29.637Z,84.30
2022-08-05T13:31:11.183Z,85.30
2022-08-05T13:34:21.356Z,84.90
2022-08-05T13:36:33.363Z,82.10
2022-08-05T13:39:01.700Z,81.80
2022-08-05T13:41:37.719Z,82.00
2022-08-05T13:44:06.248Z,81.90
2022-08-05T13:46:38.058Z,82.50
2022-08-05T13:49:12.581Z,81.40
2022-08-05T13:51:45.807Z,81.80
2022-08-05T13:54:16.082Z,83.80
2022-08-05T13:56:50.819Z,81.90
2022-08-05T13:59:24.032Z,80.90
2022-08-05T14:01:57.556Z,80.70
2022-08-05T14:04:49.529Z,80.10
2022-08-05T14:07:55.474Z,79.90
2022-08-05T14:10:12.433Z,79.50
2022-08-05T14:12:42.682Z,79.40
2022-08-05T14:16:07.798Z,80.80
2022-08-05T14:17:59.912Z,81.20
2022-08-05T14:20:29.439Z,81.00
2022-08-05T14:22:58.793Z,80.20
2022-08-05T14:25:28.239Z,80.10
2022-08-05T14:27:58.637Z,80.50
2022-08-05T14:30:27.842Z,80.40
2022-08-05T14:32:56.723Z,76.60
2022-08-05T14:35:37.161Z,81.00
2022-08-05T14:38:27.814Z,80.10
2022-08-05T14:41:06.178Z,81.00
2022-08-05T14:44:02.168Z,80.90
2022-08-05T14:46:22.811Z,80.40
2022-08-05T14:48:57.749Z,80.30
2022-08-05T14:51:30.970Z,80.10
2022-08-05T14:54:27.501Z,80.20
2022-08-05T14:56:49.090Z,81.10
2022-08-05T14:59:21.331Z,80.50
2022-08-05T15:01:49.841Z,79.90
2022-08-05T15:04:20.284Z,78.00
2022-08-05T15:06:49.652Z,81.10
2022-08-05T15:09:51.448Z,80.20
2022-08-05T15:12:09.110Z,78.80
2022-08-05T15:14:48.225Z,78.40
2022-08-05T15:17:47.172Z,81.90
2022-08-05T15:20:17.072Z,81.30
2022-08-05T15:22:54.558Z,80.80
2022-08-05T15:25:51.615Z,77.40
2022-08-05T15:28:15.533Z,78.90
2022-08-05T15:30:45.892Z,80.60
2022-08-05T15:34:04.737Z,80.60
2022-08-05T15:36:03.920Z,77.30
2022-08-05T15:38:33.658Z,80.90
2022-08-05T15:41:22.672Z,80.30
2022-08-05T15:43:52.255Z,80.10
2022-08-05T15:46:24.166Z,75.80
2022-08-05T15:48:58.631Z,79.00
2022-08-05T15:52:13.466Z,77.00
2022-08-05T15:54:18.384Z,81.20
2022-08-05T15:56:47.572Z,81.40
2022-08-05T15:59:22.344Z,78.50
2022-08-05T16:01:53.199Z,79.80
2022-08-05T16:04:25.575Z,81.70
2022-08-05T16:06:54.258Z,80.80
2022-08-05T16:09:23.745Z,81.50
2022-08-05T16:11:54.320Z,80.90
2022-08-05T16:14:22.535Z,81.40
2022-08-05T16:16:50.667Z,79.50
2022-08-05T16:20:03.325Z,81.90
2022-08-05T16:22:10.716Z,79.90
2022-08-05T16:24:41.732Z,82.20
2022-08-05T16:27:47.382Z,81.30
2022-08-05T16:30:26.270Z,80.70
2022-08-05T16:32:56.393Z,82.70
2022-08-05T16:35:27.862Z,82.60
2022-08-05T16:38:16.225Z,82.70
2022-08-05T16:40:52.001Z,82.70
2022-08-05T16:43:26.305Z,81.90
2022-08-05T16:46:04.964Z,80.90
2022-08-05T16:48:41.138Z,83.10
2022-08-05T16:51:10.808Z,83.50
2022-08-05T16:54:05.331Z,83.70
2022-08-05T16:56:30.807Z,83.20
2022-08-05T16:59:00.970Z,83.30
2022-08-05T17:01:52.694Z,83.30
2022-08-05T17:04:23.912Z,83.60
2022-08-05T17:06:55.289Z,83.30
2022-08-05T17:09:23.393Z,83.50
2022-08-05T17:11:55.969Z,84.60
2022-08-05T17:14:36.742Z,83.90
2022-08-05T17:17:06.563Z,83.90
2022-08-05T17:19:37.319Z,84.00
2022-08-05T17:22:05.228Z,83.80
2022-08-05T17:24:38.635Z,83.90
2022-08-05T17:27:11.714Z,83.90
2022-08-05T17:29:47.185Z,83.70
2022-08-05T17:32:19.350Z,83.40
2022-08-05T17:34:48.463Z,83.60
2022-08-05T17:37:39.523Z,83.00
2022-08-05T17:40:12.081Z,84.10
2022-08-05T17:42:41.713Z,85.00
2022-08-05T17:45:21.871Z,84.20
2022-08-05T17:47:54.671Z,84.40
2022-08-05T17:50:28.671Z,84.40
2022-08-05T17:52:59.807Z,84.60
2022-08-05T17:55:34.253Z,84.70
2022-08-05T17:58:03.382Z,84.60
2022-08-05T18:00:34.357Z,84.70
2022-08-05T18:03:03.336Z,84.70
2022-08-05T18:05:35.586Z,84.80
2022-08-05T18:08:04.413Z,84.80
2022-08-05T18:10:33.562Z,84.90
2022-08-05T18:13:07.678Z,84.90
2022-08-05T18:15:41.773Z,85.40
2022-08-05T18:18:12.516Z,85.00
2022-08-05T18:20:40.320Z,84.50
2022-08-05T18:23:09.045Z,85.00
2022-08-05T18:25:38.885Z,85.20
2022-08-05T18:28:07.296Z,85.30
2022-08-05T18:30:39.175Z,85.50
2022-08-05T18:33:13.520Z,85.20
2022-08-05T18:35:49.417Z,85.70
2022-08-05T18:38:19.362Z,85.60
2022-08-05T18:41:55.679Z,85.80
2022-08-05T18:43:42.982Z,85.90
2022-08-05T18:46:20.239Z,86.10
2022-08-05T18:48:51.785Z,86.20
2022-08-05T18:52:06.808Z,86.50
2022-08-05T18:54:25.886Z,86.40
2022-08-05T18:56:57.228Z,87.00
2022-08-05T18:59:44.255Z,87.10
2022-08-05T19:02:26.676Z,87.40
2022-08-05T19:05:02.932Z,87.40
2022-08-05T19:07:47.782Z,87.60
2022-08-05T19:10:15.956Z,88.80
2022-08-05T19:12:46.270Z,90.10
2022-08-05T19:15:58.349Z,91.10
2022-08-05T19:18:09.645Z,92.70
2022-08-05T19:20:41.673Z,93.90
2022-08-05T19:24:03.559Z,95.60
2022-08-05T19:26:08.490Z,95.90
2022-08-05T19:28:41.513Z,97.10
2022-08-05T19:31:13.435Z,97.90
2022-08-05T19:33:48.585Z,98.60
2022-08-05T19:36:24.113Z,98.10
2022-08-05T19:38:52.269Z,98.20
2022-08-05T19:41:22.035Z,98.90
2022-08-05T19:44:13.646Z,99.90
2022-08-05T19:46:43.632Z,99.90
2022-08-05T19:49:17.169Z,98.80
2022-08-05T19:52:04.363Z,98.10
2022-08-05T19:54:34.815Z,98.20
2022-08-05T19:57:08.650Z,99.90
2022-08-05T19:59:55.552Z,99.20
2022-08-05T20:02:27.123Z,98.70
2022-08-05T20:04:58.909Z,98.10
2022-08-05T20:07:47.008Z,98.00
2022-08-05T20:10:17.227Z,98.20
2022-08-05T20:12:49.011Z,98.70
2022-08-05T20:15:48.663Z,98.70
2022-08-05T20:18:10.075Z,98.80
2022-08-05T20:20:48.171Z,98.70
2022-08-05T20:23:16.256Z,99.00
2022-08-05T20:25:44.117Z,99.10
2022-08-05T20:28:14.647Z,99.00
2022-08-05T20:30:42.810Z,99.10
2022-08-05T20:33:10.950Z,99.20
2022-08-05T20:35:45.747Z,99.80
2022-08-05T20:38:20.231Z,99.90
2022-08-05T20:40:56.422Z,99.90
2022-08-05T20:43:58.003Z,99.90
2022-08-05T20:46:18.385Z,99.90
2022-08-05T20:48:52.680Z,99.90
2022-08-05T20:51:22.793Z,99.90
2022-08-05T20:53:56.226Z,99.90
2022-08-05T20:56:29.878Z,99.90
2022-08-05T20:59:11.295Z,99.90
2022-08-05T21:01:44.889Z,99.90
2022-08-05T21:04:13.077Z,99.90
2022-08-05T21:06:45.617Z,99.90
2022-08-05T21:09:15.007Z,99.90
2022-08-05T21:12:10.832Z,99.90
2022-08-05T21:14:35.200Z,99.90
2022-08-05T21:17:05.376Z,99.90
2022-08-05T21:19:46.631Z,99.90
2022-08-05T21:22:17.715Z,99.90
2022-08-05T21:24:48.737Z,99.90
2022-08-05T21:27:17.106Z,99.90
2022-08-05T21:29:48.479Z,99.90
2022-08-05T21:32:20.196Z,99.90
2022-08-05T21:35:06.688Z,99.90
2022-08-05T21:37:41.322Z,99.90
2022-08-05T21:40:13.093Z,99.90
2022-08-05T21:42:44.850Z,99.90
2022-08-05T21:45:17.590Z,99.90
2022-08-05T21:47:55.684Z,99.90
2022-08-05T21:50:25.700Z,99.90
2022-08-05T21:52:53.811Z,99.90
2022-08-05T21:56:01.418Z,99.90
2022-08-05T21:58:14.943Z,99.90
2022-08-05T22:00:51.059Z,99.90
2022-08-05T22:03:48.328Z,99.90
2022-08-05T22:06:08.206Z,99.90
2022-08-05T22:08:36.340Z,99.90
2022-08-05T22:11:11.781Z,99.90
2022-08-05T22:14:31.204Z,99.90
2022-08-05T22:16:41.793Z,99.90
2022-08-05T22:20:01.750Z,99.90
2022-08-05T22:22:06.840Z,99.90
2022-08-05T22:24:53.595Z,99.90
2022-08-05T22:28:08.827Z,99.90
2022-08-05T22:30:34.985Z,99.90
2022-08-05T22:33:15.471Z,99.90
2022-08-05T22:35:48.575Z,99.90
2022-08-05T22:38:19.640Z,99.90
2022-08-05T22:40:49.430Z,99.90
2022-08-05T22:43:37.228Z,99.90
2022-08-05T22:46:12.076Z,99.90
2022-08-05T22:48:44.475Z,99.90
2022-08-05T22:51:15.632Z,99.90
2022-08-05T22:53:51.102Z,99.90
2022-08-05T22:56:30.558Z,99.90
2022-08-05T23:02:03.999Z,99.90
2022-08-05T23:04:30.515Z,99.90
2022-08-05T23:06:58.363Z,99.90
2022-08-05T23:09:53.345Z,99.90
2022-08-05T23:12:16.198Z,99.90
2022-08-05T23:14:44.062Z,99.90
2022-08-05T23:17:34.969Z,99.90
2022-08-05T23:20:17.889Z,99.90
2022-08-05T23:22:47.555Z,99.90
2022-08-05T23:25:17.036Z,99.90
2022-08-05T23:28:00.394Z,99.90
2022-08-05T23:30:29.069Z,99.90
2022-08-05T23:32:59.378Z,99.90
2022-08-05T23:35:34.324Z,99.90
2022-08-05T23:38:02.981Z,99.90
2022-08-05T23:40:32.329Z,99.90
2022-08-05T23:43:02.154Z,99.90
2022-08-05T23:45:49.954Z,99.90
2022-08-05T23:48:19.723Z,99.90
2022-08-05T23:50:48.965Z,99.90
2022-08-05T23:53:22.500Z,99.90
2022-08-05T23:55:51.031Z,99.90
2022-08-05T23:58:32.182Z,99.90
